Time;durP1;ratioP1;P1;durP2;ratioP2;P2;SDS_P1;SDS_P2;PMS_P1;PMS_P2;Temp;Humidity;BMP_temperature;BMP_pressure;BME280_temperature;BME280_humidity;BME280_pressure;Samples;Min_cycle;Max_cycle;Signal;HPM_P1;HPM_P2
2023/12/09 00:02:04;;;;;;;17.07;13.17;;;5.00;99.90;;;;;;4973618;28;20990;-32
2023/12/09 00:04:30;;;;;;;15.93;12.37;;;5.00;99.90;;;;;;4969189;28;20270;-31
2023/12/09 00:06:56;;;;;;;17.10;12.67;;;5.00;99.90;;;;;;4974828;28;20295;-31
2023/12/09 00:09:21;;;;;;;14.13;11.20;;;4.90;99.90;;;;;;4981012;28;20203;-32
2023/12/09 00:11:47;;;;;;;16.33;12.60;;;4.90;99.90;;;;;;4978166;28;20178;-31
2023/12/09 00:14:13;;;;;;;15.20;11.83;;;4.90;99.90;;;;;;4979189;28;20183;-33
2023/12/09 00:16:42;;;;;;;14.37;11.80;;;4.90;99.90;;;;;;4973371;28;20206;-32
2023/12/09 00:19:09;;;;;;;18.07;12.60;;;4.80;99.90;;;;;;5005358;28;20207;-31
2023/12/09 00:21:35;;;;;;;15.10;12.60;;;4.80;99.90;;;;;;4985999;28;20265;-31
2023/12/09 00:24:01;;;;;;;15.30;11.40;;;4.70;99.90;;;;;;4972934;28;20337;-31
2023/12/09 00:26:27;;;;;;;16.30;12.30;;;4.60;99.90;;;;;;4974929;28;20183;-31
2023/12/09 00:28:53;;;;;;;16.30;12.83;;;4.60;99.90;;;;;;4980515;28;20225;-31
2023/12/09 00:31:19;;;;;;;17.77;12.40;;;4.60;99.90;;;;;;4993856;28;20177;-31
2023/12/09 00:33:44;;;;;;;16.93;11.93;;;4.50;99.90;;;;;;4990276;28;20183;-32
2023/12/09 00:36:10;;;;;;;17.57;12.00;;;4.50;99.90;;;;;;4988837;28;20184;-33
2023/12/09 00:38:36;;;;;;;17.37;13.27;;;4.50;99.90;;;;;;4971066;28;20210;-31
2023/12/09 00:41:02;;;;;;;17.23;13.13;;;4.50;99.90;;;;;;4992534;28;20182;-31
2023/12/09 00:43:28;;;;;;;17.10;12.90;;;4.50;99.90;;;;;;4977713;28;20215;-31
2023/12/09 00:45:53;;;;;;;22.73;13.50;;;4.50;99.90;;;;;;4973030;28;20213;-31
2023/12/09 00:48:19;;;;;;;18.23;13.33;;;4.50;99.90;;;;;;4971278;28;20280;-30
2023/12/09 00:50:45;;;;;;;19.33;13.77;;;4.50;99.90;;;;;;4992955;28;20179;-31
2023/12/09 00:53:12;;;;;;;19.00;14.50;;;4.50;99.90;;;;;;4980330;28;20188;-31
2023/12/09 00:55:38;;;;;;;18.67;13.83;;;4.40;99.90;;;;;;4966493;28;20239;-31
2023/12/09 00:58:03;;;;;;;18.57;13.90;;;4.40;99.90;;;;;;4970898;28;20250;-31
2023/12/09 01:00:29;;;;;;;17.33;12.77;;;4.40;99.90;;;;;;4985701;28;20201;-31
2023/12/09 01:02:55;;;;;;;18.40;12.63;;;4.40;99.90;;;;;;4974158;28;20237;-31
2023/12/09 01:05:21;;;;;;;13.33;11.00;;;4.30;99.90;;;;;;4974113;28;20176;-31
2023/12/09 01:07:47;;;;;;;14.20;10.77;;;4.30;99.90;;;;;;4984516;28;20186;-31
2023/12/09 01:10:13;;;;;;;14.93;10.67;;;4.30;99.90;;;;;;4965491;28;20204;-31
2023/12/09 01:12:38;;;;;;;13.53;9.37;;;4.20;99.90;;;;;;4976725;28;20224;-31
2023/12/09 01:15:05;;;;;;;13.80;10.20;;;4.10;99.90;;;;;;4976231;28;20184;-31
2023/12/09 01:17:31;;;;;;;14.90;10.13;;;4.10;99.90;;;;;;4958068;28;20310;-31
2023/12/09 01:19:56;;;;;;;11.77;9.27;;;4.10;99.90;;;;;;4975398;28;20285;-31
2023/12/09 01:22:22;;;;;;;12.17;9.57;;;4.00;99.90;;;;;;4976742;28;20652;-32
2023/12/09 01:24:48;;;;;;;13.13;9.53;;;4.00;99.90;;;;;;4976778;28;20187;-32
2023/12/09 01:27:14;;;;;;;11.73;8.80;;;4.10;99.90;;;;;;4971654;28;20215;-31
2023/12/09 01:29:40;;;;;;;14.57;9.10;;;4.10;99.90;;;;;;4975795;28;20219;-31
2023/12/09 01:32:06;;;;;;;14.67;9.03;;;4.10;99.90;;;;;;4966983;28;20232;-31
2023/12/09 01:34:32;;;;;;;16.13;8.90;;;4.10;99.90;;;;;;4984888;28;20212;-31
2023/12/09 01:36:57;;;;;;;16.00;9.10;;;4.20;99.90;;;;;;4969831;28;20250;-31
2023/12/09 01:39:23;;;;;;;14.43;8.73;;;4.20;99.90;;;;;;4968922;28;20201;-30
2023/12/09 01:41:49;;;;;;;12.63;8.60;;;4.20;99.90;;;;;;4962333;28;20189;-31
2023/12/09 01:44:15;;;;;;;12.80;8.27;;;4.20;99.90;;;;;;4959699;28;20179;-31
2023/12/09 01:46:41;;;;;;;14.10;8.67;;;4.20;99.90;;;;;;4955930;28;20180;-31
2023/12/09 01:49:07;;;;;;;13.00;7.87;;;4.20;99.90;;;;;;4974823;28;20219;-31
2023/12/09 01:51:34;;;;;;;12.70;8.43;;;4.20;99.90;;;;;;4960357;28;20189;-31
2023/12/09 01:54:00;;;;;;;13.80;8.73;;;4.20;99.90;;;;;;4974090;28;20182;-31
2023/12/09 01:56:26;;;;;;;13.13;7.90;;;4.20;99.90;;;;;;4972971;28;20183;-33
2023/12/09 01:58:53;;;;;;;11.73;7.93;;;4.20;99.90;;;;;;4947400;28;20197;-31
2023/12/09 02:01:19;;;;;;;10.40;7.27;;;4.30;99.90;;;;;;4967782;28;20179;-31
2023/12/09 02:03:45;;;;;;;11.03;8.60;;;4.30;99.90;;;;;;4960346;28;20176;-31
2023/12/09 02:06:11;;;;;;;13.10;8.87;;;4.30;99.90;;;;;;4975086;28;20175;-30
2023/12/09 02:08:38;;;;;;;13.73;9.00;;;4.30;99.90;;;;;;4977201;28;20213;-30
2023/12/09 02:11:22;;;;;;;16.20;9.13;;;4.30;99.90;;;;;;4959789;28;20268;-30
2023/12/09 02:14:01;;;;;;;15.70;8.77;;;4.40;99.90;;;;;;4973941;28;20185;-31
2023/12/09 02:16:52;;;;;;;13.60;8.97;;;4.40;99.90;;;;;;4974868;28;20184;-31
2023/12/09 02:19:18;;;;;;;13.87;9.10;;;4.40;99.90;;;;;;4970416;28;20233;-32
2023/12/09 02:22:03;;;;;;;11.03;8.03;;;4.40;99.90;;;;;;4958046;28;20230;-32
2023/12/09 02:24:29;;;;;;;15.07;8.90;;;4.40;99.90;;;;;;4973407;28;20206;-31
2023/12/09 02:27:12;;;;;;;13.77;8.50;;;4.40;99.90;;;;;;4958935;28;20189;-31
2023/12/09 02:29:47;;;;;;;17.47;8.93;;;4.40;99.90;;;;;;5009785;23;20237;-29
2023/12/09 02:32:15;;;;;;;13.43;8.30;;;4.40;99.90;;;;;;4981457;28;20185;-28
2023/12/09 02:34:43;;;;;;;12.20;8.03;;;4.40;99.90;;;;;;4994241;28;20225;-28
2023/12/09 02:37:11;;;;;;;14.47;8.37;;;4.50;99.90;;;;;;4974931;28;20220;-28
2023/12/09 02:39:37;;;;;;;14.83;8.20;;;4.50;99.90;;;;;;4959208;28;20309;-28
2023/12/09 02:42:05;;;;;;;10.57;7.80;;;4.50;99.90;;;;;;4973308;28;20241;-29
2023/12/09 02:44:32;;;;;;;17.20;8.67;;;4.50;99.90;;;;;;4968443;28;20197;-30
2023/12/09 02:46:58;;;;;;;18.30;8.43;;;4.50;99.90;;;;;;4973037;28;20215;-29
2023/12/09 02:49:23;;;;;;;9.73;7.40;;;4.60;99.90;;;;;;4966546;28;20213;-28
2023/12/09 02:51:49;;;;;;;15.27;7.57;;;4.60;99.90;;;;;;4962667;28;20183;-31
2023/12/09 02:54:15;;;;;;;12.10;7.23;;;4.60;99.90;;;;;;4952687;28;20188;-29
2023/12/09 02:56:41;;;;;;;11.37;7.57;;;4.60;99.90;;;;;;4979014;28;20199;-28
2023/12/09 02:59:07;;;;;;;10.23;7.07;;;4.60;99.90;;;;;;4956452;28;20202;-29
2023/12/09 03:01:33;;;;;;;10.03;7.60;;;4.60;99.90;;;;;;4968120;28;20180;-28
2023/12/09 03:03:58;;;;;;;9.77;7.07;;;4.60;99.90;;;;;;4973965;28;20182;-28
2023/12/09 03:06:25;;;;;;;9.13;7.10;;;4.60;99.90;;;;;;4950997;28;20178;-28
2023/12/09 03:08:50;;;;;;;9.47;7.40;;;4.60;99.90;;;;;;4969536;28;20217;-28
2023/12/09 03:11:16;;;;;;;10.60;7.23;;;4.60;99.90;;;;;;4970636;28;20197;-27
2023/12/09 03:13:42;;;;;;;9.70;6.60;;;4.60;99.90;;;;;;4955372;28;20190;-28
2023/12/09 03:16:08;;;;;;;9.77;7.37;;;4.50;99.90;;;;;;4951064;28;20184;-28
2023/12/09 03:18:34;;;;;;;12.03;8.87;;;4.50;99.90;;;;;;4949733;28;20213;-29
2023/12/09 03:20:59;;;;;;;9.60;7.70;;;4.40;99.90;;;;;;4968107;28;20179;-28
2023/12/09 03:23:25;;;;;;;11.30;7.73;;;4.40;99.90;;;;;;4955367;28;20221;-28
2023/12/09 03:25:51;;;;;;;11.53;7.53;;;4.40;99.90;;;;;;4971670;28;20219;-30
2023/12/09 03:28:17;;;;;;;11.50;8.30;;;4.30;99.90;;;;;;4981371;28;20214;-28
2023/12/09 03:30:43;;;;;;;11.03;7.00;;;4.20;99.90;;;;;;4966008;28;20306;-28
2023/12/09 03:33:08;;;;;;;10.23;7.87;;;4.20;99.90;;;;;;4969304;28;20182;-28
2023/12/09 03:35:34;;;;;;;10.83;8.13;;;4.10;99.90;;;;;;4955984;28;20221;-28
2023/12/09 03:38:00;;;;;;;11.33;7.50;;;4.10;99.90;;;;;;4956076;28;20261;-30
2023/12/09 03:40:26;;;;;;;10.13;7.13;;;4.00;99.90;;;;;;4954735;28;20201;-29
2023/12/09 03:42:51;;;;;;;10.23;7.23;;;4.00;99.90;;;;;;4957933;28;20208;-28
2023/12/09 03:45:17;;;;;;;9.13;6.73;;;3.90;99.90;;;;;;4973359;28;20265;-28
2023/12/09 03:47:44;;;;;;;11.80;6.70;;;3.90;99.90;;;;;;4970798;28;20198;-28
2023/12/09 03:50:10;;;;;;;10.87;6.57;;;3.90;99.90;;;;;;4952912;28;20217;-28
2023/12/09 03:52:36;;;;;;;9.47;6.00;;;3.90;99.90;;;;;;4955105;28;20185;-29
2023/12/09 03:55:02;;;;;;;9.57;6.03;;;3.80;99.90;;;;;;4972688;28;20206;-29
2023/12/09 03:57:27;;;;;;;10.60;6.53;;;3.90;99.90;;;;;;4969396;28;20232;-29
2023/12/09 03:59:53;;;;;;;8.07;5.97;;;3.90;99.90;;;;;;4987304;28;20251;-28
2023/12/09 04:02:19;;;;;;;7.57;5.30;;;3.80;99.90;;;;;;4973614;28;20187;-28
2023/12/09 04:04:45;;;;;;;9.23;5.70;;;3.80;99.90;;;;;;4957266;28;20182;-29
2023/12/09 04:07:10;;;;;;;7.13;5.30;;;3.70;99.90;;;;;;4970519;28;20187;-30
2023/12/09 04:09:36;;;;;;;10.23;5.87;;;3.70;99.90;;;;;;4955336;28;20210;-28
2023/12/09 04:12:02;;;;;;;7.27;5.57;;;3.70;99.90;;;;;;4957262;28;20180;-28
2023/12/09 04:14:28;;;;;;;9.00;5.70;;;3.70;99.90;;;;;;4973480;28;20183;-29
2023/12/09 04:16:54;;;;;;;9.43;5.27;;;3.70;99.90;;;;;;4954052;28;20220;-29
2023/12/09 04:19:20;;;;;;;9.30;5.50;;;3.70;99.90;;;;;;4963948;28;20204;-27
2023/12/09 04:21:46;;;;;;;5.57;4.80;;;3.60;99.90;;;;;;4968654;28;20211;-28
2023/12/09 04:24:11;;;;;;;6.30;4.90;;;3.70;99.90;;;;;;4971825;28;20187;-28
2023/12/09 04:26:38;;;;;;;8.60;5.10;;;3.70;99.90;;;;;;4957108;28;20256;-28
2023/12/09 04:29:06;;;;;;;8.60;4.50;;;3.70;99.90;;;;;;4973292;28;20317;-28
2023/12/09 04:31:32;;;;;;;7.63;4.27;;;3.80;99.90;;;;;;4966530;28;20180;-29
2023/12/09 04:33:58;;;;;;;7.53;4.07;;;3.90;99.90;;;;;;4970969;28;20189;-29
2023/12/09 04:36:24;;;;;;;8.27;4.67;;;3.90;99.90;;;;;;4952096;28;20180;-28
2023/12/09 04:38:50;;;;;;;6.97;4.13;;;4.00;99.90;;;;;;4959259;28;20235;-28
2023/12/09 04:41:19;;;;;;;8.37;4.63;;;4.00;99.90;;;;;;4970807;28;20185;-28
2023/12/09 04:43:44;;;;;;;6.00;3.70;;;4.00;99.90;;;;;;4975097;28;20198;-27
2023/12/09 04:46:10;;;;;;;5.50;4.17;;;4.00;99.90;;;;;;4969158;28;20265;-29
2023/12/09 04:48:36;;;;;;;8.80;4.67;;;4.10;99.90;;;;;;4958717;28;20191;-28
2023/12/09 04:51:02;;;;;;;8.40;5.90;;;4.10;99.90;;;;;;4957810;28;20181;-29
2023/12/09 04:53:28;;;;;;;10.33;5.83;;;4.00;99.90;;;;;;4957154;28;20199;-29
2023/12/09 04:55:54;;;;;;;9.20;6.37;;;3.90;99.90;;;;;;4960221;28;20276;-28
2023/12/09 04:58:20;;;;;;;8.43;6.20;;;3.90;99.90;;;;;;4959365;28;20200;-28
2023/12/09 05:00:46;;;;;;;7.87;6.67;;;3.80;99.90;;;;;;4978305;28;20211;-28
2023/12/09 05:03:12;;;;;;;8.07;6.73;;;3.80;99.90;;;;;;4959793;28;20183;-27
2023/12/09 05:05:38;;;;;;;7.80;6.10;;;3.80;99.90;;;;;;4955391;28;20187;-29
2023/12/09 05:08:04;;;;;;;6.77;6.00;;;3.70;99.90;;;;;;4973058;28;20184;-27
2023/12/09 05:10:30;;;;;;;9.73;5.70;;;3.70;99.90;;;;;;4964371;28;20678;-29
2023/12/09 05:12:56;;;;;;;7.67;5.20;;;3.80;99.90;;;;;;4959945;28;20203;-28
2023/12/09 05:15:22;;;;;;;6.20;4.07;;;3.70;99.90;;;;;;4975239;28;20196;-28
2023/12/09 05:17:48;;;;;;;7.80;4.30;;;3.80;99.90;;;;;;4975558;28;20208;-29
2023/12/09 05:20:14;;;;;;;7.70;4.00;;;3.80;99.90;;;;;;4975082;28;20203;-29
2023/12/09 05:22:41;;;;;;;5.43;4.03;;;3.80;99.90;;;;;;4975303;28;20187;-28
2023/12/09 05:25:09;;;;;;;6.87;4.53;;;3.90;99.90;;;;;;4975311;28;20180;-28
2023/12/09 05:27:35;;;;;;;6.37;4.07;;;3.90;99.90;;;;;;4959090;28;20192;-28
2023/12/09 05:30:01;;;;;;;8.43;4.33;;;3.90;99.90;;;;;;4954474;28;20728;-28
2023/12/09 05:32:28;;;;;;;7.30;4.77;;;4.00;99.90;;;;;;4968527;28;20184;-28
2023/12/09 05:34:54;;;;;;;6.20;4.40;;;3.90;99.90;;;;;;4945631;28;20213;-28
2023/12/09 05:37:20;;;;;;;8.60;4.47;;;3.90;99.90;;;;;;4969301;28;20232;-28
2023/12/09 05:39:45;;;;;;;6.67;3.50;;;3.90;99.90;;;;;;4967542;28;20223;-29
2023/12/09 05:42:11;;;;;;;4.87;3.70;;;3.90;99.90;;;;;;4959359;28;20246;-28
2023/12/09 05:44:37;;;;;;;6.60;3.70;;;3.90;99.90;;;;;;4974736;28;20180;-28
2023/12/09 05:47:03;;;;;;;4.50;3.20;;;3.90;99.90;;;;;;4945324;28;20197;-29
2023/12/09 05:49:29;;;;;;;6.17;3.50;;;4.00;99.90;;;;;;4970944;28;20209;-29
2023/12/09 05:51:55;;;;;;;4.47;3.20;;;4.00;99.90;;;;;;4953184;28;20187;-28
2023/12/09 05:54:20;;;;;;;4.17;3.10;;;4.00;99.90;;;;;;4975834;28;20186;-29
2023/12/09 05:56:50;;;;;;;4.40;2.83;;;4.00;99.90;;;;;;4975867;28;20190;-28
2023/12/09 05:59:16;;;;;;;4.70;3.07;;;4.00;99.90;;;;;;4992412;28;20230;-27
2023/12/09 06:01:42;;;;;;;5.17;3.17;;;4.00;99.90;;;;;;4967458;28;20221;-29
2023/12/09 06:04:09;;;;;;;4.53;3.40;;;4.00;99.90;;;;;;4954879;28;20252;-29
2023/12/09 06:06:35;;;;;;;5.40;3.40;;;4.10;99.90;;;;;;4957688;28;20216;-29
2023/12/09 06:09:00;;;;;;;3.73;2.80;;;4.10;99.90;;;;;;4975570;28;20292;-29
2023/12/09 06:11:26;;;;;;;4.73;3.10;;;4.10;99.90;;;;;;4974810;28;20191;-29
2023/12/09 06:13:52;;;;;;;6.53;2.80;;;4.10;99.90;;;;;;4962496;28;20187;-28
2023/12/09 06:16:21;;;;;;;4.50;2.50;;;4.10;99.90;;;;;;4962170;28;20180;-28
2023/12/09 06:18:48;;;;;;;3.47;2.70;;;4.20;99.90;;;;;;4949970;28;20216;-28
2023/12/09 06:21:23;;;;;;;5.57;4.20;;;4.20;99.90;;;;;;4961802;28;20203;-28
2023/12/09 06:23:50;;;;;;;5.10;3.93;;;4.20;99.90;;;;;;4954317;28;20183;-29
2023/12/09 06:26:16;;;;;;;4.80;3.80;;;4.20;99.90;;;;;;4953200;28;20187;-29
2023/12/09 06:28:43;;;;;;;6.10;4.67;;;4.20;99.90;;;;;;4967936;28;20193;-29
2023/12/09 06:31:10;;;;;;;5.07;4.33;;;4.20;99.90;;;;;;4957560;28;20198;-28
2023/12/09 06:33:37;;;;;;;5.03;4.30;;;4.20;99.90;;;;;;4972236;28;20188;-28
2023/12/09 06:36:04;;;;;;;8.47;4.40;;;4.20;99.90;;;;;;4959392;28;20191;-28
2023/12/09 06:38:30;;;;;;;7.97;4.50;;;4.20;99.90;;;;;;4974264;28;20212;-28
2023/12/09 06:40:56;;;;;;;5.20;3.93;;;4.20;99.90;;;;;;4974701;28;20211;-28
2023/12/09 06:43:21;;;;;;;7.77;4.50;;;4.20;99.90;;;;;;4974754;28;20278;-28
2023/12/09 06:45:47;;;;;;;7.53;4.07;;;4.10;99.90;;;;;;4974892;28;20181;-28
2023/12/09 06:48:13;;;;;;;5.77;3.30;;;4.10;99.90;;;;;;4970898;28;20262;-29
2023/12/09 06:50:39;;;;;;;5.17;3.10;;;4.10;99.90;;;;;;4955544;28;20208;-28
2023/12/09 06:53:05;;;;;;;4.23;3.60;;;4.10;99.90;;;;;;4948077;28;20187;-28
2023/12/09 06:55:30;;;;;;;4.80;3.10;;;4.10;99.90;;;;;;4972620;28;20744;-28
2023/12/09 06:57:56;;;;;;;3.60;3.17;;;4.10;99.90;;;;;;4951503;28;20312;-29
2023/12/09 07:00:23;;;;;;;4.70;2.90;;;4.10;99.90;;;;;;4958057;28;20204;-28
2023/12/09 07:02:49;;;;;;;4.17;2.97;;;4.10;99.90;;;;;;4967629;28;20177;-28
2023/12/09 07:05:15;;;;;;;4.60;3.47;;;4.10;99.90;;;;;;4967751;28;20252;-29
2023/12/09 07:07:42;;;;;;;6.57;3.80;;;4.20;99.90;;;;;;4973678;28;20185;-29
2023/12/09 07:10:08;;;;;;;3.27;2.97;;;4.20;99.90;;;;;;4953476;28;20198;-28
2023/12/09 07:12:34;;;;;;;6.27;3.87;;;4.20;99.90;;;;;;4943624;28;20195;-29
2023/12/09 07:15:00;;;;;;;6.13;3.40;;;4.20;99.90;;;;;;4951153;28;20187;-28
2023/12/09 07:17:26;;;;;;;5.20;3.50;;;4.20;99.90;;;;;;4982252;28;20207;-29
2023/12/09 07:19:56;;;;;;;5.83;4.40;;;4.20;99.90;;;;;;4960151;28;20686;-28
2023/12/09 07:22:25;;;;;;;6.80;4.73;;;4.20;99.90;;;;;;4972117;28;20278;-28
2023/12/09 07:24:51;;;;;;;6.70;5.50;;;4.30;99.90;;;;;;4967328;28;20194;-28
2023/12/09 07:27:17;;;;;;;8.10;5.57;;;4.30;99.90;;;;;;4954907;28;20197;-29
2023/12/09 07:29:45;;;;;;;7.93;5.80;;;4.30;99.90;;;;;;4948510;28;20218;-30
2023/12/09 07:32:12;;;;;;;7.80;5.23;;;4.30;99.90;;;;;;4951316;28;20215;-28
2023/12/09 07:34:37;;;;;;;7.63;5.80;;;4.30;99.90;;;;;;4956014;28;20190;-29
2023/12/09 07:37:04;;;;;;;7.57;6.10;;;4.30;99.90;;;;;;4965387;28;20277;-28
2023/12/09 07:39:30;;;;;;;10.00;6.93;;;4.30;99.90;;;;;;4967232;28;20211;-29
2023/12/09 07:41:56;;;;;;;11.37;8.53;;;4.30;99.90;;;;;;4974086;28;20195;-28
2023/12/09 07:44:21;;;;;;;9.27;7.83;;;4.30;99.90;;;;;;4949821;28;20214;-28
2023/12/09 07:46:47;;;;;;;12.17;9.13;;;4.30;99.90;;;;;;4971533;28;20186;-28
2023/12/09 07:49:13;;;;;;;11.27;8.30;;;4.30;99.90;;;;;;4973043;28;20681;-29
2023/12/09 07:51:39;;;;;;;9.27;7.20;;;4.30;99.90;;;;;;4950866;28;20257;-31
2023/12/09 07:54:07;;;;;;;9.77;7.60;;;4.30;99.90;;;;;;4957622;28;20276;-29
2023/12/09 07:56:37;;;;;;;16.43;12.80;;;4.30;99.90;;;;;;4955227;28;20277;-28
2023/12/09 07:59:03;;;;;;;24.63;17.27;;;4.30;99.90;;;;;;4990324;28;20214;-27
2023/12/09 08:01:29;;;;;;;15.03;10.93;;;4.30;99.90;;;;;;4957097;28;20291;-29
2023/12/09 08:03:55;;;;;;;9.50;7.30;;;4.30;99.90;;;;;;4960135;28;20188;-29
2023/12/09 08:06:21;;;;;;;10.43;7.17;;;4.30;99.90;;;;;;4949403;28;20195;-29
2023/12/09 08:08:50;;;;;;;11.27;7.73;;;4.20;99.90;;;;;;4953414;28;20194;-29
2023/12/09 08:11:18;;;;;;;11.43;8.63;;;4.20;99.90;;;;;;4974179;28;20209;-30
2023/12/09 08:13:44;;;;;;;11.67;8.37;;;4.30;99.90;;;;;;4971133;28;20190;-29
2023/12/09 08:16:10;;;;;;;12.37;9.47;;;4.30;99.90;;;;;;4956379;28;20172;-30
2023/12/09 08:18:37;;;;;;;12.27;9.77;;;4.30;99.90;;;;;;4974351;28;20218;-30
2023/12/09 08:21:05;;;;;;;11.83;9.23;;;4.30;99.90;;;;;;4964133;28;20242;-29
2023/12/09 08:23:31;;;;;;;12.53;9.93;;;4.30;99.90;;;;;;4988742;28;20250;-29
2023/12/09 08:25:57;;;;;;;14.00;11.30;;;4.30;99.90;;;;;;4962504;28;20188;-30
2023/12/09 08:28:23;;;;;;;13.33;10.13;;;4.30;99.90;;;;;;4947969;28;20231;-30
2023/12/09 08:30:49;;;;;;;13.23;9.70;;;4.30;99.90;;;;;;4984305;28;20242;-29
2023/12/09 08:33:15;;;;;;;14.77;10.60;;;4.40;99.90;;;;;;4951172;28;20181;-28
2023/12/09 08:35:41;;;;;;;11.87;9.53;;;4.30;99.90;;;;;;4967409;28;20198;-29
2023/12/09 08:38:07;;;;;;;12.83;10.00;;;4.40;99.90;;;;;;4967245;28;20214;-28
2023/12/09 08:40:32;;;;;;;14.50;10.60;;;4.40;99.90;;;;;;4953964;28;20206;-29
2023/12/09 08:42:58;;;;;;;13.03;10.00;;;4.50;99.90;;;;;;4983765;28;20189;-29
2023/12/09 08:45:24;;;;;;;12.80;9.63;;;4.50;99.90;;;;;;4964560;28;20633;-27
2023/12/09 08:47:50;;;;;;;12.30;9.47;;;4.60;99.90;;;;;;4951760;28;20191;-29
2023/12/09 08:50:16;;;;;;;13.13;9.17;;;4.60;99.90;;;;;;4957574;28;20213;-29
2023/12/09 08:52:42;;;;;;;9.67;8.03;;;4.60;99.90;;;;;;4972281;28;20198;-29
2023/12/09 08:55:08;;;;;;;12.33;8.57;;;4.70;99.90;;;;;;4967776;28;20187;-29
2023/12/09 08:57:34;;;;;;;11.83;8.60;;;4.70;99.90;;;;;;4990261;28;20289;-28
2023/12/09 09:00:00;;;;;;;14.40;8.27;;;4.70;99.90;;;;;;4965976;28;20208;-28
2023/12/09 09:02:26;;;;;;;17.03;15.23;;;4.70;99.90;;;;;;4965797;28;20191;-29
2023/12/09 09:04:52;;;;;;;18.57;16.67;;;4.80;99.90;;;;;;4980480;28;20188;-28
2023/12/09 09:07:18;;;;;;;20.67;16.83;;;4.80;99.90;;;;;;4976081;28;20190;-29
2023/12/09 09:09:44;;;;;;;24.33;20.43;;;4.90;99.90;;;;;;4953318;28;20208;-28
2023/12/09 09:12:10;;;;;;;24.27;21.57;;;5.00;99.90;;;;;;4957518;28;20224;-27
2023/12/09 09:14:36;;;;;;;23.60;21.03;;;5.10;99.90;;;;;;4947572;28;20308;-28
2023/12/09 09:17:03;;;;;;;22.17;19.00;;;5.20;99.90;;;;;;4949870;28;20279;-29
2023/12/09 09:19:29;;;;;;;20.47;16.53;;;5.30;99.90;;;;;;4976730;28;20698;-28
2023/12/09 09:21:55;;;;;;;18.27;14.83;;;5.30;99.90;;;;;;4964102;28;20195;-29
2023/12/09 09:24:21;;;;;;;17.03;13.30;;;5.40;99.90;;;;;;4968227;28;20182;-29
2023/12/09 09:26:47;;;;;;;14.83;12.07;;;5.40;99.90;;;;;;4966957;28;20251;-28
2023/12/09 09:29:13;;;;;;;13.70;10.43;;;5.40;99.90;;;;;;4963189;28;20330;-29
2023/12/09 09:31:38;;;;;;;15.67;11.07;;;5.40;99.90;;;;;;4963849;28;20187;-28
2023/12/09 09:34:04;;;;;;;18.50;10.87;;;5.50;99.90;;;;;;4968198;28;20183;-28
2023/12/09 09:36:30;;;;;;;15.20;10.43;;;5.60;99.90;;;;;;4968995;28;20282;-31
2023/12/09 09:38:56;;;;;;;12.30;10.17;;;5.60;99.90;;;;;;4969288;28;20220;-29
2023/12/09 09:41:37;;;;;;;13.07;9.70;;;5.60;99.90;;;;;;4953622;28;20183;-29
2023/12/09 09:44:10;;;;;;;11.97;9.50;;;5.70;99.90;;;;;;4968047;28;20218;-29
2023/12/09 09:46:39;;;;;;;11.93;8.93;;;5.70;99.90;;;;;;4962542;28;20235;-28
2023/12/09 09:49:05;;;;;;;12.50;9.27;;;5.70;99.90;;;;;;4969371;28;20206;-29
2023/12/09 09:51:32;;;;;;;13.87;9.90;;;5.70;99.90;;;;;;4967246;28;20223;-28
2023/12/09 09:54:15;;;;;;;13.70;9.53;;;5.70;99.90;;;;;;4988947;28;20188;-28
2023/12/09 09:56:42;;;;;;;14.43;9.83;;;5.80;99.90;;;;;;4983323;28;20217;-27
2023/12/09 09:59:10;;;;;;;12.90;8.97;;;5.80;99.90;;;;;;4957208;28;20213;-28
2023/12/09 10:01:37;;;;;;;12.67;8.47;;;5.80;99.90;;;;;;4955843;28;20207;-29
2023/12/09 10:04:03;;;;;;;12.93;8.63;;;5.80;99.90;;;;;;4948639;28;20239;-29
2023/12/09 10:06:30;;;;;;;24.00;14.50;;;5.80;99.90;;;;;;4948188;28;20188;-28
2023/12/09 10:08:57;;;;;;;23.23;14.80;;;5.90;99.90;;;;;;4949919;28;20204;-28
2023/12/09 10:11:23;;;;;;;16.73;12.43;;;5.90;99.90;;;;;;4967249;28;20191;-30
2023/12/09 10:13:49;;;;;;;13.37;9.20;;;6.00;99.90;;;;;;4965796;28;20185;-30
2023/12/09 10:16:15;;;;;;;10.30;8.17;;;6.00;99.90;;;;;;4967683;28;20226;-29
2023/12/09 10:18:47;;;;;;;15.30;9.73;;;6.20;99.90;;;;;;4965769;28;20216;-28
2023/12/09 10:21:14;;;;;;;14.67;11.03;;;6.20;99.90;;;;;;4978768;28;20266;-29
2023/12/09 10:23:41;;;;;;;14.33;8.60;;;6.30;99.90;;;;;;4954660;28;20214;-29
2023/12/09 10:26:10;;;;;;;19.13;12.70;;;6.40;99.90;;;;;;4957598;28;20172;-29
2023/12/09 10:28:36;;;;;;;28.80;17.70;;;6.40;99.90;;;;;;4948675;28;20188;-29
2023/12/09 10:31:02;;;;;;;20.60;12.00;;;6.40;99.90;;;;;;4948283;28;20199;-29
2023/12/09 10:33:33;;;;;;;9.20;6.47;;;6.40;99.90;;;;;;4951302;28;20207;-28
2023/12/09 10:36:00;;;;;;;8.17;6.10;;;6.50;99.90;;;;;;4966616;28;20293;-28
2023/12/09 10:38:30;;;;;;;9.03;5.63;;;6.50;99.90;;;;;;4984744;28;20212;-29
2023/12/09 10:40:57;;;;;;;8.73;6.23;;;6.50;99.90;;;;;;4978408;28;20200;-29
2023/12/09 10:43:26;;;;;;;11.23;6.97;;;6.50;99.90;;;;;;4949733;28;20183;-29
2023/12/09 10:45:52;;;;;;;18.43;11.27;;;6.60;99.90;;;;;;4952007;28;20188;-28
2023/12/09 10:48:18;;;;;;;17.37;10.83;;;6.60;99.90;;;;;;4946152;28;20198;-30
2023/12/09 10:50:45;;;;;;;13.87;8.37;;;6.60;99.90;;;;;;4964770;28;20258;-28
2023/12/09 10:53:11;;;;;;;8.23;6.17;;;6.70;99.90;;;;;;4962522;28;20196;-30
2023/12/09 10:55:37;;;;;;;7.87;5.30;;;6.80;99.90;;;;;;4951554;28;20185;-29
2023/12/09 10:58:06;;;;;;;5.93;4.77;;;6.80;99.90;;;;;;4968325;28;20294;-30
2023/12/09 11:00:33;;;;;;;5.63;4.93;;;6.90;99.90;;;;;;4953263;28;20204;-28
2023/12/09 11:03:00;;;;;;;6.13;4.10;;;6.90;99.90;;;;;;4954142;28;20192;-29
2023/12/09 11:05:27;;;;;;;7.83;3.70;;;7.00;99.90;;;;;;4951429;28;20275;-30
2023/12/09 11:07:54;;;;;;;4.07;3.07;;;7.00;99.90;;;;;;4966646;28;20259;-29
2023/12/09 11:10:20;;;;;;;6.17;3.17;;;7.00;99.90;;;;;;4969176;28;20205;-29
2023/12/09 11:12:49;;;;;;;4.43;3.33;;;7.10;99.90;;;;;;4943681;28;20192;-32
2023/12/09 11:15:18;;;;;;;4.83;3.70;;;7.10;99.90;;;;;;4951052;28;20191;-28
2023/12/09 11:17:45;;;;;;;5.00;3.53;;;7.20;99.90;;;;;;4968724;28;20219;-29
2023/12/09 11:20:14;;;;;;;4.30;3.43;;;7.20;99.90;;;;;;4966254;28;20203;-30
2023/12/09 11:22:43;;;;;;;7.03;4.47;;;7.20;99.90;;;;;;4959176;28;20267;-29
2023/12/09 11:25:12;;;;;;;5.90;4.23;;;7.30;99.90;;;;;;4952474;28;20217;-28
2023/12/09 11:27:38;;;;;;;4.90;3.67;;;7.30;99.90;;;;;;4956473;28;20191;-29
2023/12/09 11:30:05;;;;;;;4.27;3.30;;;7.30;99.90;;;;;;4985925;28;20216;-28
2023/12/09 11:32:31;;;;;;;4.73;3.10;;;7.20;99.90;;;;;;4953758;28;20176;-28
2023/12/09 11:34:58;;;;;;;4.10;3.27;;;7.30;99.90;;;;;;4948673;28;20657;-29
2023/12/09 11:37:27;;;;;;;4.87;3.03;;;7.30;99.90;;;;;;4979372;28;20220;-30
2023/12/09 11:39:56;;;;;;;4.13;3.30;;;7.30;99.90;;;;;;4964813;28;20200;-28
2023/12/09 11:42:22;;;;;;;6.23;3.83;;;7.30;99.90;;;;;;4952491;28;20189;-29
2023/12/09 11:44:49;;;;;;;7.53;5.87;;;7.30;99.90;;;;;;4947259;28;20247;-29
2023/12/09 11:47:17;;;;;;;5.47;4.27;;;7.30;99.90;;;;;;4963430;28;20180;-29
2023/12/09 11:49:44;;;;;;;6.70;4.60;;;7.20;99.90;;;;;;4945744;28;20684;-28
2023/12/09 11:52:10;;;;;;;8.50;6.20;;;7.20;99.90;;;;;;4956758;28;20188;-28
2023/12/09 11:54:36;;;;;;;7.00;5.40;;;7.20;99.90;;;;;;4970358;28;20272;-28
2023/12/09 11:57:03;;;;;;;7.83;5.43;;;7.20;99.90;;;;;;4965638;28;20184;-28
2023/12/09 11:59:29;;;;;;;8.17;5.63;;;7.30;99.90;;;;;;4952516;28;20212;-28
2023/12/09 12:01:54;;;;;;;6.97;5.10;;;7.30;99.90;;;;;;4963315;28;20235;-29
2023/12/09 12:04:20;;;;;;;5.93;4.27;;;7.30;99.90;;;;;;4947692;28;20194;-28
2023/12/09 12:06:46;;;;;;;6.37;5.37;;;7.30;99.90;;;;;;4967016;28;20188;-29
2023/12/09 12:09:12;;;;;;;7.50;5.63;;;7.40;99.90;;;;;;4954177;28;20208;-29
2023/12/09 12:11:38;;;;;;;5.63;4.30;;;7.40;99.90;;;;;;4945080;28;20222;-29
2023/12/09 12:14:05;;;;;;;7.27;4.17;;;7.50;99.90;;;;;;4972504;28;20242;-29
2023/12/09 12:16:31;;;;;;;6.17;3.80;;;7.50;99.90;;;;;;4967669;28;20185;-28
2023/12/09 12:18:57;;;;;;;7.47;4.43;;;7.50;99.90;;;;;;4970817;28;20317;-29
2023/12/09 12:21:22;;;;;;;7.57;4.97;;;7.60;99.90;;;;;;4972945;28;20188;-29
2023/12/09 12:23:52;;;;;;;7.77;4.53;;;7.60;99.90;;;;;;4985083;28;20191;-28
2023/12/09 12:26:17;;;;;;;5.33;3.83;;;7.60;99.90;;;;;;4956496;28;20234;-28
2023/12/09 12:28:48;;;;;;;5.73;3.83;;;7.60;99.90;;;;;;4956437;28;20187;-29
2023/12/09 12:31:14;;;;;;;6.20;3.77;;;7.70;99.90;;;;;;4957477;28;20187;-29
2023/12/09 12:33:39;;;;;;;4.43;3.13;;;7.80;99.90;;;;;;4966298;28;20275;-28
2023/12/09 12:36:06;;;;;;;4.50;3.50;;;7.90;99.90;;;;;;4947359;28;20223;-28
2023/12/09 12:38:32;;;;;;;5.57;3.47;;;8.00;99.90;;;;;;4980697;28;20219;-28
2023/12/09 12:40:58;;;;;;;4.60;3.23;;;8.20;99.90;;;;;;4945925;28;20181;-28
2023/12/09 12:43:28;;;;;;;5.63;3.77;;;8.20;99.90;;;;;;4945481;28;20238;-28
2023/12/09 12:45:57;;;;;;;3.97;2.80;;;8.20;99.90;;;;;;4963974;28;20172;-29
2023/12/09 12:48:23;;;;;;;4.67;2.93;;;8.30;99.90;;;;;;4966341;28;20185;-29